sensor_id;sensor_type;location;lat;lon;timestamp;P1;durP1;ratioP1;P2;durP2;ratioP2
48629;SDS011;34426;52.180;4.462;2023-03-01T00:01:08;16.33;;;11.75;;
48629;SDS011;34426;52.180;4.462;2023-03-01T00:03:35;19.83;;;12.55;;
48629;SDS011;34426;52.180;4.462;2023-03-01T00:06:01;18.95;;;12.43;;
48629;SDS011;34426;52.180;4.462;2023-03-01T00:08:29;18.05;;;12.80;;
48629;SDS011;34426;52.180;4.462;2023-03-01T00:11:04;18.98;;;12.57;;
48629;SDS011;34426;52.180;4.462;2023-03-01T00:13:31;14.93;;;12.10;;
48629;SDS011;34426;52.180;4.462;2023-03-01T00:15:57;17.08;;;13.25;;
48629;SDS011;34426;52.180;4.462;2023-03-01T00:18:22;21.58;;;13.85;;
48629;SDS011;34426;52.180;4.462;2023-03-01T00:20:49;17.33;;;13.20;;
48629;SDS011;34426;52.180;4.462;2023-03-01T00:23:15;17.70;;;13.38;;
48629;SDS011;34426;52.180;4.462;2023-03-01T00:25:42;17.00;;;12.88;;
48629;SDS011;34426;52.180;4.462;2023-03-01T00:28:08;19.05;;;13.88;;
48629;SDS011;34426;52.180;4.462;2023-03-01T00:30:33;19.80;;;13.65;;
48629;SDS011;34426;52.180;4.462;2023-03-01T00:32:59;18.80;;;13.95;;
48629;SDS011;34426;52.180;4.462;2023-03-01T00:35:24;17.33;;;13.88;;
48629;SDS011;34426;52.180;4.462;2023-03-01T00:37:50;17.60;;;13.15;;
48629;SDS011;34426;52.180;4.462;2023-03-01T00:40:15;20.30;;;14.25;;
48629;SDS011;34426;52.180;4.462;2023-03-01T00:42:42;20.52;;;14.40;;
48629;SDS011;34426;52.180;4.462;2023-03-01T00:45:08;20.63;;;15.05;;
48629;SDS011;34426;52.180;4.462;2023-03-01T00:47:34;19.88;;;14.13;;
48629;SDS011;34426;52.180;4.462;2023-03-01T00:50:00;19.85;;;15.90;;
48629;SDS011;34426;52.180;4.462;2023-03-01T00:52:25;22.52;;;16.13;;
48629;SDS011;34426;52.180;4.462;2023-03-01T00:54:51;22.35;;;15.07;;
48629;SDS011;34426;52.180;4.462;2023-03-01T00:57:17;18.95;;;14.68;;
48629;SDS011;34426;52.180;4.462;2023-03-01T00:59:44;21.20;;;15.63;;
48629;SDS011;34426;52.180;4.462;2023-03-01T01:02:09;20.75;;;15.95;;
48629;SDS011;34426;52.180;4.462;2023-03-01T01:04:35;25.98;;;15.48;;
48629;SDS011;34426;52.180;4.462;2023-03-01T01:07:00;22.60;;;16.38;;
48629;SDS011;34426;52.180;4.462;2023-03-01T01:09:26;21.63;;;16.58;;
48629;SDS011;34426;52.180;4.462;2023-03-01T01:11:51;24.60;;;17.17;;
48629;SDS011;34426;52.180;4.462;2023-03-01T01:14:17;21.92;;;16.85;;
48629;SDS011;34426;52.180;4.462;2023-03-01T01:16:45;24.75;;;18.40;;
48629;SDS011;34426;52.180;4.462;2023-03-01T01:19:10;28.33;;;18.42;;
48629;SDS011;34426;52.180;4.462;2023-03-01T01:21:36;24.13;;;18.23;;
48629;SDS011;34426;52.180;4.462;2023-03-01T01:24:02;28.20;;;19.92;;
48629;SDS011;34426;52.180;4.462;2023-03-01T01:26:29;27.02;;;19.40;;
48629;SDS011;34426;52.180;4.462;2023-03-01T01:28:56;30.17;;;20.02;;
48629;SDS011;34426;52.180;4.462;2023-03-01T01:31:22;31.13;;;19.35;;
48629;SDS011;34426;52.180;4.462;2023-03-01T01:33:50;29.02;;;19.80;;
48629;SDS011;34426;52.180;4.462;2023-03-01T01:36:17;27.67;;;19.98;;
48629;SDS011;34426;52.180;4.462;2023-03-01T01:38:42;29.58;;;19.33;;
48629;SDS011;34426;52.180;4.462;2023-03-01T01:41:08;28.85;;;19.70;;
48629;SDS011;34426;52.180;4.462;2023-03-01T01:43:37;28.50;;;19.27;;
48629;SDS011;34426;52.180;4.462;2023-03-01T01:46:04;26.27;;;19.00;;
48629;SDS011;34426;52.180;4.462;2023-03-01T01:48:37;26.83;;;19.40;;
48629;SDS011;34426;52.180;4.462;2023-03-01T01:51:09;30.00;;;19.75;;
48629;SDS011;34426;52.180;4.462;2023-03-01T01:53:38;27.00;;;19.23;;
48629;SDS011;34426;52.180;4.462;2023-03-01T01:56:05;24.27;;;18.60;;
48629;SDS011;34426;52.180;4.462;2023-03-01T01:58:33;28.05;;;19.95;;
48629;SDS011;34426;52.180;4.462;2023-03-01T02:01:00;27.42;;;20.15;;
48629;SDS011;34426;52.180;4.462;2023-03-01T02:03:27;30.67;;;19.95;;
48629;SDS011;34426;52.180;4.462;2023-03-01T02:05:57;28.42;;;20.27;;
48629;SDS011;34426;52.180;4.462;2023-03-01T02:08:30;25.13;;;19.48;;
48629;SDS011;34426;52.180;4.462;2023-03-01T02:10:58;28.95;;;20.35;;
48629;SDS011;34426;52.180;4.462;2023-03-01T02:13:25;25.75;;;19.80;;
48629;SDS011;34426;52.180;4.462;2023-03-01T02:15:51;23.77;;;18.80;;
48629;SDS011;34426;52.180;4.462;2023-03-01T02:18:18;31.05;;;21.33;;
48629;SDS011;34426;52.180;4.462;2023-03-01T02:20:49;29.25;;;20.33;;
48629;SDS011;34426;52.180;4.462;2023-03-01T02:23:25;34.75;;;21.52;;
48629;SDS011;34426;52.180;4.462;2023-03-01T02:25:54;29.38;;;22.58;;
48629;SDS011;34426;52.180;4.462;2023-03-01T02:28:30;34.90;;;22.25;;
48629;SDS011;34426;52.180;4.462;2023-03-01T02:30:56;28.85;;;21.45;;
48629;SDS011;34426;52.180;4.462;2023-03-01T02:33:22;34.50;;;22.15;;
48629;SDS011;34426;52.180;4.462;2023-03-01T02:35:48;29.17;;;22.67;;
48629;SDS011;34426;52.180;4.462;2023-03-01T02:38:13;28.95;;;21.40;;
48629;SDS011;34426;52.180;4.462;2023-03-01T02:40:39;32.72;;;23.80;;
48629;SDS011;34426;52.180;4.462;2023-03-01T02:43:06;32.40;;;23.85;;
48629;SDS011;34426;52.180;4.462;2023-03-01T02:45:36;29.60;;;22.90;;
48629;SDS011;34426;52.180;4.462;2023-03-01T02:48:02;33.28;;;23.02;;
48629;SDS011;34426;52.180;4.462;2023-03-01T02:50:41;29.52;;;21.90;;
48629;SDS011;34426;52.180;4.462;2023-03-01T02:53:21;34.78;;;22.92;;
48629;SDS011;34426;52.180;4.462;2023-03-01T02:55:50;33.60;;;22.75;;
48629;SDS011;34426;52.180;4.462;2023-03-01T02:58:16;31.13;;;23.88;;
48629;SDS011;34426;52.180;4.462;2023-03-01T03:00:42;33.20;;;23.25;;
48629;SDS011;34426;52.180;4.462;2023-03-01T03:03:08;27.25;;;21.40;;
48629;SDS011;34426;52.180;4.462;2023-03-01T03:05:35;34.53;;;22.52;;
48629;SDS011;34426;52.180;4.462;2023-03-01T03:08:01;33.03;;;22.52;;
48629;SDS011;34426;52.180;4.462;2023-03-01T03:10:29;31.42;;;22.98;;
48629;SDS011;34426;52.180;4.462;2023-03-01T03:12:57;34.83;;;23.17;;
48629;SDS011;34426;52.180;4.462;2023-03-01T03:15:24;33.30;;;24.73;;
48629;SDS011;34426;52.180;4.462;2023-03-01T03:17:52;38.33;;;24.80;;
48629;SDS011;34426;52.180;4.462;2023-03-01T03:20:19;31.85;;;24.25;;
48629;SDS011;34426;52.180;4.462;2023-03-01T03:22:46;33.17;;;26.55;;
48629;SDS011;34426;52.180;4.462;2023-03-01T03:25:13;37.00;;;26.02;;
48629;SDS011;34426;52.180;4.462;2023-03-01T03:27:40;32.20;;;24.40;;
48629;SDS011;34426;52.180;4.462;2023-03-01T03:30:07;31.58;;;23.90;;
48629;SDS011;34426;52.180;4.462;2023-03-01T03:32:34;35.22;;;25.15;;
48629;SDS011;34426;52.180;4.462;2023-03-01T03:35:01;33.50;;;25.30;;
48629;SDS011;34426;52.180;4.462;2023-03-01T03:37:27;32.30;;;24.20;;
48629;SDS011;34426;52.180;4.462;2023-03-01T03:39:52;35.67;;;25.52;;
48629;SDS011;34426;52.180;4.462;2023-03-01T03:42:17;33.17;;;25.50;;
48629;SDS011;34426;52.180;4.462;2023-03-01T03:44:43;35.38;;;26.83;;
48629;SDS011;34426;52.180;4.462;2023-03-01T03:47:08;35.20;;;25.35;;
48629;SDS011;34426;52.180;4.462;2023-03-01T03:49:34;33.75;;;24.23;;
48629;SDS011;34426;52.180;4.462;2023-03-01T03:52:01;35.00;;;24.00;;
48629;SDS011;34426;52.180;4.462;2023-03-01T03:54:26;35.10;;;25.67;;
48629;SDS011;34426;52.180;4.462;2023-03-01T03:56:52;35.97;;;24.73;;
48629;SDS011;34426;52.180;4.462;2023-03-01T03:59:17;31.45;;;24.60;;
48629;SDS011;34426;52.180;4.462;2023-03-01T04:01:43;38.47;;;26.83;;
48629;SDS011;34426;52.180;4.462;2023-03-01T04:04:08;34.10;;;24.58;;
48629;SDS011;34426;52.180;4.462;2023-03-01T04:06:33;33.47;;;24.33;;
48629;SDS011;34426;52.180;4.462;2023-03-01T04:09:01;34.42;;;25.88;;
48629;SDS011;34426;52.180;4.462;2023-03-01T04:11:26;33.03;;;26.58;;
48629;SDS011;34426;52.180;4.462;2023-03-01T04:13:53;38.25;;;26.05;;
48629;SDS011;34426;52.180;4.462;2023-03-01T04:16:20;35.17;;;26.38;;
48629;SDS011;34426;52.180;4.462;2023-03-01T04:18:46;37.05;;;26.75;;
48629;SDS011;34426;52.180;4.462;2023-03-01T04:21:11;35.40;;;26.55;;
48629;SDS011;34426;52.180;4.462;2023-03-01T04:23:37;37.22;;;26.98;;
48629;SDS011;34426;52.180;4.462;2023-03-01T04:26:04;36.47;;;27.23;;
48629;SDS011;34426;52.180;4.462;2023-03-01T04:28:30;35.97;;;26.45;;
48629;SDS011;34426;52.180;4.462;2023-03-01T04:30:57;35.22;;;25.92;;
48629;SDS011;34426;52.180;4.462;2023-03-01T04:33:23;37.65;;;26.48;;
48629;SDS011;34426;52.180;4.462;2023-03-01T04:35:50;33.55;;;25.23;;
48629;SDS011;34426;52.180;4.462;2023-03-01T04:38:16;36.05;;;27.73;;
48629;SDS011;34426;52.180;4.462;2023-03-01T04:40:41;34.53;;;25.85;;
48629;SDS011;34426;52.180;4.462;2023-03-01T04:43:09;37.80;;;27.38;;
48629;SDS011;34426;52.180;4.462;2023-03-01T04:45:35;34.40;;;27.02;;
48629;SDS011;34426;52.180;4.462;2023-03-01T04:48:01;38.55;;;27.48;;
48629;SDS011;34426;52.180;4.462;2023-03-01T04:50:28;36.03;;;26.77;;
48629;SDS011;34426;52.180;4.462;2023-03-01T04:52:54;37.88;;;25.20;;
48629;SDS011;34426;52.180;4.462;2023-03-01T04:55:20;36.03;;;26.70;;
48629;SDS011;34426;52.180;4.462;2023-03-01T04:57:45;41.78;;;26.85;;
48629;SDS011;34426;52.180;4.462;2023-03-01T05:00:13;35.25;;;26.77;;
48629;SDS011;34426;52.180;4.462;2023-03-01T05:02:40;40.90;;;27.02;;
48629;SDS011;34426;52.180;4.462;2023-03-01T05:05:06;40.42;;;28.20;;
48629;SDS011;34426;52.180;4.462;2023-03-01T05:07:31;36.88;;;28.27;;
48629;SDS011;34426;52.180;4.462;2023-03-01T05:09:57;39.10;;;28.30;;
48629;SDS011;34426;52.180;4.462;2023-03-01T05:12:22;45.40;;;28.98;;
48629;SDS011;34426;52.180;4.462;2023-03-01T05:14:48;46.35;;;30.90;;
48629;SDS011;34426;52.180;4.462;2023-03-01T05:17:15;80.00;;;35.25;;
48629;SDS011;34426;52.180;4.462;2023-03-01T05:19:40;97.28;;;38.08;;
48629;SDS011;34426;52.180;4.462;2023-03-01T05:22:06;138.15;;;37.55;;
48629;SDS011;34426;52.180;4.462;2023-03-01T05:24:32;61.03;;;36.55;;
48629;SDS011;34426;52.180;4.462;2023-03-01T05:26:58;107.80;;;37.17;;
48629;SDS011;34426;52.180;4.462;2023-03-01T05:29:25;58.53;;;37.42;;
48629;SDS011;34426;52.180;4.462;2023-03-01T05:31:53;106.10;;;36.65;;
48629;SDS011;34426;52.180;4.462;2023-03-01T05:34:22;117.25;;;37.72;;
48629;SDS011;34426;52.180;4.462;2023-03-01T05:36:48;75.97;;;37.47;;
48629;SDS011;34426;52.180;4.462;2023-03-01T05:39:14;89.68;;;36.63;;
48629;SDS011;34426;52.180;4.462;2023-03-01T05:41:39;57.08;;;37.45;;
48629;SDS011;34426;52.180;4.462;2023-03-01T05:44:05;79.15;;;35.10;;
48629;SDS011;34426;52.180;4.462;2023-03-01T05:46:31;49.90;;;35.45;;
48629;SDS011;34426;52.180;4.462;2023-03-01T05:48:56;54.85;;;35.35;;
48629;SDS011;34426;52.180;4.462;2023-03-01T05:51:23;61.50;;;36.42;;
48629;SDS011;34426;52.180;4.462;2023-03-01T05:53:49;52.88;;;35.25;;
48629;SDS011;34426;52.180;4.462;2023-03-01T05:56:14;57.75;;;37.53;;
48629;SDS011;34426;52.180;4.462;2023-03-01T05:58:40;55.88;;;37.10;;
48629;SDS011;34426;52.180;4.462;2023-03-01T06:01:05;56.47;;;36.83;;
48629;SDS011;34426;52.180;4.462;2023-03-01T06:03:35;56.25;;;37.45;;
48629;SDS011;34426;52.180;4.462;2023-03-01T06:06:01;48.45;;;35.65;;
48629;SDS011;34426;52.180;4.462;2023-03-01T06:08:27;52.60;;;34.28;;
48629;SDS011;34426;52.180;4.462;2023-03-01T06:10:53;54.95;;;37.35;;
48629;SDS011;34426;52.180;4.462;2023-03-01T06:13:19;55.65;;;36.92;;
48629;SDS011;34426;52.180;4.462;2023-03-01T06:15:44;54.08;;;37.65;;
48629;SDS011;34426;52.180;4.462;2023-03-01T06:18:09;54.20;;;36.03;;
48629;SDS011;34426;52.180;4.462;2023-03-01T06:20:35;53.90;;;38.38;;
48629;SDS011;34426;52.180;4.462;2023-03-01T06:23:00;47.92;;;34.72;;
48629;SDS011;34426;52.180;4.462;2023-03-01T06:25:27;62.75;;;38.78;;
48629;SDS011;34426;52.180;4.462;2023-03-01T06:27:53;53.28;;;35.90;;
48629;SDS011;34426;52.180;4.462;2023-03-01T06:30:19;52.03;;;36.85;;
48629;SDS011;34426;52.180;4.462;2023-03-01T06:32:46;53.13;;;34.92;;
48629;SDS011;34426;52.180;4.462;2023-03-01T06:35:14;54.75;;;39.35;;
48629;SDS011;34426;52.180;4.462;2023-03-01T06:37:41;53.55;;;39.03;;
48629;SDS011;34426;52.180;4.462;2023-03-01T06:40:09;56.22;;;36.45;;
48629;SDS011;34426;52.180;4.462;2023-03-01T06:42:37;49.53;;;36.25;;
48629;SDS011;34426;52.180;4.462;2023-03-01T06:45:05;52.13;;;37.03;;
48629;SDS011;34426;52.180;4.462;2023-03-01T06:47:32;47.10;;;34.97;;
48629;SDS011;34426;52.180;4.462;2023-03-01T06:49:58;54.88;;;36.42;;
48629;SDS011;34426;52.180;4.462;2023-03-01T06:52:23;49.58;;;35.15;;
48629;SDS011;34426;52.180;4.462;2023-03-01T06:54:49;52.85;;;35.83;;
48629;SDS011;34426;52.180;4.462;2023-03-01T06:57:14;49.10;;;33.92;;
48629;SDS011;34426;52.180;4.462;2023-03-01T06:59:41;50.10;;;34.83;;
48629;SDS011;34426;52.180;4.462;2023-03-01T07:02:08;49.42;;;33.13;;
48629;SDS011;34426;52.180;4.462;2023-03-01T07:04:35;45.13;;;31.73;;
48629;SDS011;34426;52.180;4.462;2023-03-01T07:07:00;46.20;;;32.80;;
48629;SDS011;34426;52.180;4.462;2023-03-01T07:09:26;45.20;;;33.28;;
48629;SDS011;34426;52.180;4.462;2023-03-01T07:11:52;47.25;;;33.80;;
48629;SDS011;34426;52.180;4.462;2023-03-01T07:14:17;46.72;;;33.60;;
48629;SDS011;34426;52.180;4.462;2023-03-01T07:16:44;45.28;;;32.30;;
48629;SDS011;34426;52.180;4.462;2023-03-01T07:19:10;48.17;;;33.88;;
48629;SDS011;34426;52.180;4.462;2023-03-01T07:21:35;48.20;;;33.05;;
48629;SDS011;34426;52.180;4.462;2023-03-01T07:24:01;47.13;;;32.83;;
48629;SDS011;34426;52.180;4.462;2023-03-01T07:26:26;47.53;;;32.63;;
48629;SDS011;34426;52.180;4.462;2023-03-01T07:28:55;47.17;;;32.88;;
48629;SDS011;34426;52.180;4.462;2023-03-01T07:31:23;43.50;;;32.60;;
48629;SDS011;34426;52.180;4.462;2023-03-01T07:33:50;45.28;;;34.28;;
48629;SDS011;34426;52.180;4.462;2023-03-01T07:36:15;51.83;;;33.75;;
48629;SDS011;34426;52.180;4.462;2023-03-01T07:38:41;44.40;;;32.42;;
48629;SDS011;34426;52.180;4.462;2023-03-01T07:41:06;46.55;;;32.55;;
48629;SDS011;34426;52.180;4.462;2023-03-01T07:43:32;49.00;;;33.75;;
48629;SDS011;34426;52.180;4.462;2023-03-01T07:45:58;43.08;;;32.42;;
48629;SDS011;34426;52.180;4.462;2023-03-01T07:48:24;45.03;;;32.65;;
48629;SDS011;34426;52.180;4.462;2023-03-01T07:50:51;43.30;;;32.70;;
48629;SDS011;34426;52.180;4.462;2023-03-01T07:53:16;48.08;;;34.10;;
48629;SDS011;34426;52.180;4.462;2023-03-01T07:55:45;47.75;;;35.40;;
48629;SDS011;34426;52.180;4.462;2023-03-01T07:58:10;60.80;;;39.22;;
48629;SDS011;34426;52.180;4.462;2023-03-01T08:00:35;57.45;;;40.50;;
48629;SDS011;34426;52.180;4.462;2023-03-01T08:03:01;63.38;;;42.50;;
48629;SDS011;34426;52.180;4.462;2023-03-01T08:05:27;57.60;;;41.10;;
48629;SDS011;34426;52.180;4.462;2023-03-01T08:07:56;61.42;;;41.95;;
48629;SDS011;34426;52.180;4.462;2023-03-01T08:10:22;63.55;;;44.08;;
48629;SDS011;34426;52.180;4.462;2023-03-01T08:12:51;63.13;;;43.85;;
48629;SDS011;34426;52.180;4.462;2023-03-01T08:15:17;62.30;;;44.40;;
48629;SDS011;34426;52.180;4.462;2023-03-01T08:17:45;65.28;;;45.70;;
48629;SDS011;34426;52.180;4.462;2023-03-01T08:20:10;65.35;;;47.08;;
48629;SDS011;34426;52.180;4.462;2023-03-01T08:22:36;71.50;;;50.72;;
48629;SDS011;34426;52.180;4.462;2023-03-01T08:25:03;83.57;;;54.47;;
48629;SDS011;34426;52.180;4.462;2023-03-01T08:27:29;88.72;;;59.22;;
48629;SDS011;34426;52.180;4.462;2023-03-01T08:29:54;91.60;;;62.13;;
48629;SDS011;34426;52.180;4.462;2023-03-01T08:32:20;102.07;;;66.05;;
48629;SDS011;34426;52.180;4.462;2023-03-01T08:34:46;97.15;;;66.88;;
48629;SDS011;34426;52.180;4.462;2023-03-01T08:37:11;102.28;;;72.07;;
48629;SDS011;34426;52.180;4.462;2023-03-01T08:39:37;109.53;;;75.32;;
48629;SDS011;34426;52.180;4.462;2023-03-01T08:42:06;105.50;;;72.38;;
48629;SDS011;34426;52.180;4.462;2023-03-01T08:44:32;100.78;;;69.78;;
48629;SDS011;34426;52.180;4.462;2023-03-01T08:46:59;107.43;;;72.82;;
48629;SDS011;34426;52.180;4.462;2023-03-01T08:49:24;95.80;;;67.28;;
48629;SDS011;34426;52.180;4.462;2023-03-01T08:51:50;98.10;;;63.72;;
48629;SDS011;34426;52.180;4.462;2023-03-01T08:54:16;83.57;;;57.15;;
48629;SDS011;34426;52.180;4.462;2023-03-01T08:56:43;89.10;;;57.85;;
48629;SDS011;34426;52.180;4.462;2023-03-01T08:59:11;77.38;;;53.85;;
48629;SDS011;34426;52.180;4.462;2023-03-01T09:01:38;77.32;;;53.33;;
48629;SDS011;34426;52.180;4.462;2023-03-01T09:04:04;69.72;;;49.88;;
48629;SDS011;34426;52.180;4.462;2023-03-01T09:06:30;73.88;;;50.90;;
48629;SDS011;34426;52.180;4.462;2023-03-01T09:08:55;70.68;;;50.15;;
48629;SDS011;34426;52.180;4.462;2023-03-01T09:11:21;72.18;;;50.17;;
48629;SDS011;34426;52.180;4.462;2023-03-01T09:13:47;66.40;;;49.13;;
48629;SDS011;34426;52.180;4.462;2023-03-01T09:16:15;72.75;;;50.63;;
48629;SDS011;34426;52.180;4.462;2023-03-01T09:18:42;66.43;;;49.65;;
48629;SDS011;34426;52.180;4.462;2023-03-01T09:21:10;66.78;;;50.03;;
48629;SDS011;34426;52.180;4.462;2023-03-01T09:23:39;64.70;;;46.63;;
48629;SDS011;34426;52.180;4.462;2023-03-01T09:26:05;61.58;;;46.55;;
48629;SDS011;34426;52.180;4.462;2023-03-01T09:28:32;59.45;;;45.72;;
48629;SDS011;34426;52.180;4.462;2023-03-01T09:30:58;58.70;;;45.35;;
48629;SDS011;34426;52.180;4.462;2023-03-01T09:33:25;63.15;;;46.10;;
48629;SDS011;34426;52.180;4.462;2023-03-01T09:35:55;65.60;;;46.30;;
48629;SDS011;34426;52.180;4.462;2023-03-01T09:38:21;68.20;;;46.35;;
48629;SDS011;34426;52.180;4.462;2023-03-01T09:40:47;65.55;;;47.20;;
48629;SDS011;34426;52.180;4.462;2023-03-01T09:43:17;62.00;;;45.58;;
48629;SDS011;34426;52.180;4.462;2023-03-01T09:45:46;61.00;;;47.28;;
48629;SDS011;34426;52.180;4.462;2023-03-01T09:48:16;62.58;;;45.65;;
48629;SDS011;34426;52.180;4.462;2023-03-01T09:50:45;58.00;;;45.47;;
48629;SDS011;34426;52.180;4.462;2023-03-01T09:53:12;67.55;;;47.00;;
48629;SDS011;34426;52.180;4.462;2023-03-01T09:55:43;63.95;;;45.67;;
48629;SDS011;34426;52.180;4.462;2023-03-01T09:58:22;58.10;;;45.88;;
48629;SDS011;34426;52.180;4.462;2023-03-01T10:00:56;59.45;;;44.35;;
48629;SDS011;34426;52.180;4.462;2023-03-01T10:03:28;56.00;;;42.65;;
48629;SDS011;34426;52.180;4.462;2023-03-01T10:08:36;54.40;;;37.85;;
48629;SDS011;34426;52.180;4.462;2023-03-01T10:11:05;44.30;;;37.58;;
48629;SDS011;34426;52.180;4.462;2023-03-01T10:13:45;47.30;;;36.03;;
48629;SDS011;34426;52.180;4.462;2023-03-01T10:16:16;46.72;;;37.33;;
48629;SDS011;34426;52.180;4.462;2023-03-01T10:18:47;45.53;;;35.05;;
48629;SDS011;34426;52.180;4.462;2023-03-01T10:21:19;43.88;;;32.53;;
48629;SDS011;34426;52.180;4.462;2023-03-01T10:23:45;43.55;;;33.38;;
48629;SDS011;34426;52.180;4.462;2023-03-01T10:26:23;52.92;;;37.20;;
48629;SDS011;34426;52.180;4.462;2023-03-01T10:29:01;53.10;;;38.70;;
48629;SDS011;34426;52.180;4.462;2023-03-01T10:31:32;45.85;;;33.67;;
48629;SDS011;34426;52.180;4.462;2023-03-01T10:34:06;37.92;;;28.67;;
48629;SDS011;34426;52.180;4.462;2023-03-01T10:36:36;42.67;;;31.25;;
48629;SDS011;34426;52.180;4.462;2023-03-01T10:39:05;35.45;;;28.55;;
48629;SDS011;34426;52.180;4.462;2023-03-01T10:41:40;36.67;;;26.35;;
48629;SDS011;34426;52.180;4.462;2023-03-01T10:44:41;36.58;;;25.75;;
48629;SDS011;34426;52.180;4.462;2023-03-01T10:47:17;32.35;;;24.80;;
48629;SDS011;34426;52.180;4.462;2023-03-01T10:50:00;43.33;;;29.20;;
48629;SDS011;34426;52.180;4.462;2023-03-01T10:52:30;38.72;;;28.13;;
48629;SDS011;34426;52.180;4.462;2023-03-01T10:54:58;43.50;;;29.25;;
48629;SDS011;34426;52.180;4.462;2023-03-01T10:57:33;40.25;;;30.15;;
48629;SDS011;34426;52.180;4.462;2023-03-01T11:00:14;34.03;;;24.23;;
48629;SDS011;34426;52.180;4.462;2023-03-01T11:02:43;27.80;;;22.73;;
48629;SDS011;34426;52.180;4.462;2023-03-01T11:05:15;28.35;;;23.55;;
48629;SDS011;34426;52.180;4.462;2023-03-01T11:07:49;30.40;;;22.75;;
48629;SDS011;34426;52.180;4.462;2023-03-01T11:10:17;26.60;;;20.73;;
48629;SDS011;34426;52.180;4.462;2023-03-01T11:12:43;26.58;;;18.27;;
48629;SDS011;34426;52.180;4.462;2023-03-01T11:15:15;21.90;;;18.10;;
48629;SDS011;34426;52.180;4.462;2023-03-01T11:17:46;26.70;;;20.75;;
48629;SDS011;34426;52.180;4.462;2023-03-01T11:20:15;28.90;;;20.92;;
48629;SDS011;34426;52.180;4.462;2023-03-01T11:22:50;28.95;;;21.20;;
48629;SDS011;34426;52.180;4.462;2023-03-01T11:25:19;29.83;;;19.63;;
48629;SDS011;34426;52.180;4.462;2023-03-01T11:27:48;25.13;;;16.88;;
48629;SDS011;34426;52.180;4.462;2023-03-01T11:30:15;18.67;;;15.73;;
48629;SDS011;34426;52.180;4.462;2023-03-01T11:32:46;22.27;;;16.15;;
48629;SDS011;34426;52.180;4.462;2023-03-01T11:35:16;25.23;;;17.00;;
48629;SDS011;34426;52.180;4.462;2023-03-01T11:37:55;24.23;;;17.10;;
48629;SDS011;34426;52.180;4.462;2023-03-01T11:40:29;23.92;;;16.67;;
48629;SDS011;34426;52.180;4.462;2023-03-01T11:43:04;26.65;;;17.33;;
48629;SDS011;34426;52.180;4.462;2023-03-01T11:45:38;23.02;;;16.77;;
48629;SDS011;34426;52.180;4.462;2023-03-01T11:48:15;19.52;;;15.50;;
48629;SDS011;34426;52.180;4.462;2023-03-01T11:51:02;25.40;;;15.57;;
48629;SDS011;34426;52.180;4.462;2023-03-01T11:53:53;20.13;;;14.60;;
48629;SDS011;34426;52.180;4.462;2023-03-01T11:56:28;23.08;;;15.93;;
48629;SDS011;34426;52.180;4.462;2023-03-01T11:59:05;21.58;;;12.20;;
48629;SDS011;34426;52.180;4.462;2023-03-01T12:01:57;15.95;;;12.05;;
48629;SDS011;34426;52.180;4.462;2023-03-01T12:04:46;17.33;;;10.77;;
48629;SDS011;34426;52.180;4.462;2023-03-01T12:07:26;18.05;;;10.25;;
48629;SDS011;34426;52.180;4.462;2023-03-01T12:10:17;16.65;;;10.82;;
48629;SDS011;34426;52.180;4.462;2023-03-01T12:12:50;10.00;;;8.15;;
48629;SDS011;34426;52.180;4.462;2023-03-01T12:15:39;14.75;;;8.77;;
48629;SDS011;34426;52.180;4.462;2023-03-01T12:18:21;14.10;;;8.75;;
48629;SDS011;34426;52.180;4.462;2023-03-01T12:21:18;17.55;;;8.68;;
48629;SDS011;34426;52.180;4.462;2023-03-01T12:23:57;17.55;;;10.50;;
48629;SDS011;34426;52.180;4.462;2023-03-01T12:26:34;18.13;;;9.70;;
48629;SDS011;34426;52.180;4.462;2023-03-01T12:29:15;13.50;;;10.13;;
48629;SDS011;34426;52.180;4.462;2023-03-01T12:31:57;17.27;;;9.90;;
48629;SDS011;34426;52.180;4.462;2023-03-01T12:34:36;15.40;;;11.02;;
48629;SDS011;34426;52.180;4.462;2023-03-01T12:37:13;16.73;;;12.13;;
48629;SDS011;34426;52.180;4.462;2023-03-01T12:39:51;13.38;;;11.05;;
48629;SDS011;34426;52.180;4.462;2023-03-01T12:42:30;15.10;;;12.05;;
48629;SDS011;34426;52.180;4.462;2023-03-01T12:45:05;16.70;;;12.10;;
48629;SDS011;34426;52.180;4.462;2023-03-01T12:47:54;17.17;;;12.65;;
48629;SDS011;34426;52.180;4.462;2023-03-01T12:50:36;20.10;;;13.25;;
48629;SDS011;34426;52.180;4.462;2023-03-01T12:53:06;17.15;;;12.77;;
48629;SDS011;34426;52.180;4.462;2023-03-01T12:55:44;15.98;;;12.57;;
48629;SDS011;34426;52.180;4.462;2023-03-01T12:58:15;18.63;;;12.30;;
48629;SDS011;34426;52.180;4.462;2023-03-01T13:00:51;19.88;;;12.48;;
48629;SDS011;34426;52.180;4.462;2023-03-01T13:03:29;21.55;;;12.13;;
48629;SDS011;34426;52.180;4.462;2023-03-01T13:06:06;21.15;;;12.25;;
48629;SDS011;34426;52.180;4.462;2023-03-01T13:08:42;19.98;;;12.73;;
48629;SDS011;34426;52.180;4.462;2023-03-01T13:11:15;16.98;;;11.77;;
48629;SDS011;34426;52.180;4.462;2023-03-01T13:13:44;18.05;;;12.00;;
48629;SDS011;34426;52.180;4.462;2023-03-01T13:16:20;18.98;;;13.20;;
48629;SDS011;34426;52.180;4.462;2023-03-01T13:21:33;15.07;;;10.85;;
48629;SDS011;34426;52.180;4.462;2023-03-01T13:23:58;13.20;;;10.40;;
48629;SDS011;34426;52.180;4.462;2023-03-01T13:26:24;20.90;;;12.07;;
48629;SDS011;34426;52.180;4.462;2023-03-01T13:28:54;15.95;;;12.00;;
48629;SDS011;34426;52.180;4.462;2023-03-01T13:37:25;15.13;;;11.38;;
48629;SDS011;34426;52.180;4.462;2023-03-01T13:39:55;14.90;;;10.50;;
48629;SDS011;34426;52.180;4.462;2023-03-01T13:42:37;15.68;;;10.65;;
48629;SDS011;34426;52.180;4.462;2023-03-01T13:45:17;13.63;;;10.15;;
48629;SDS011;34426;52.180;4.462;2023-03-01T13:47:46;13.02;;;10.25;;
48629;SDS011;34426;52.180;4.462;2023-03-01T13:50:18;12.18;;;9.48;;
48629;SDS011;34426;52.180;4.462;2023-03-01T13:52:46;12.43;;;9.90;;
48629;SDS011;34426;52.180;4.462;2023-03-01T13:55:17;15.10;;;10.05;;
48629;SDS011;34426;52.180;4.462;2023-03-01T13:57:46;19.92;;;9.65;;
48629;SDS011;34426;52.180;4.462;2023-03-01T14:03:02;14.15;;;8.68;;
48629;SDS011;34426;52.180;4.462;2023-03-01T14:05:28;10.65;;;8.73;;
48629;SDS011;34426;52.180;4.462;2023-03-01T14:07:54;12.35;;;9.30;;
48629;SDS011;34426;52.180;4.462;2023-03-01T14:10:20;11.50;;;8.35;;
48629;SDS011;34426;52.180;4.462;2023-03-01T14:12:47;10.25;;;8.48;;
48629;SDS011;34426;52.180;4.462;2023-03-01T14:15:18;14.90;;;8.95;;
48629;SDS011;34426;52.180;4.462;2023-03-01T14:17:53;15.25;;;9.52;;
48629;SDS011;34426;52.180;4.462;2023-03-01T14:20:27;13.95;;;8.65;;
48629;SDS011;34426;52.180;4.462;2023-03-01T14:22:55;9.57;;;8.10;;
48629;SDS011;34426;52.180;4.462;2023-03-01T14:25:26;9.38;;;7.55;;
48629;SDS011;34426;52.180;4.462;2023-03-01T14:27:58;12.52;;;7.22;;
48629;SDS011;34426;52.180;4.462;2023-03-01T14:30:30;10.00;;;7.35;;
48629;SDS011;34426;52.180;4.462;2023-03-01T14:33:00;11.15;;;7.63;;
48629;SDS011;34426;52.180;4.462;2023-03-01T14:35:28;10.70;;;7.25;;
48629;SDS011;34426;52.180;4.462;2023-03-01T14:37:58;8.80;;;6.93;;
48629;SDS011;34426;52.180;4.462;2023-03-01T14:40:25;10.63;;;7.20;;
48629;SDS011;34426;52.180;4.462;2023-03-01T14:42:53;7.57;;;6.80;;
48629;SDS011;34426;52.180;4.462;2023-03-01T14:45:20;10.15;;;7.18;;
48629;SDS011;34426;52.180;4.462;2023-03-01T14:47:45;8.90;;;6.35;;